Route Details

Aircraft Information
Group: Trans-Atlantic Ops
Types: A31F, B744, B763, MD11
Route Data
Distance: 2940nm
Duration: 7h 25m
Origin METAR: EGNX 080050Z 21005KT CAVOK 01/00 Q1036
Dest. METAR: KJFK 080051Z 20013KT 10SM SCT090 SCT170 BKN240 04/02 A3019 RMK AO2 SLP223 T00440017
Freight Data
(for Feb 8, 2023)
Load Factor:
115%
Manifested Cargo: 92,309lbs
Financial History
Total Freight: 496,350lbs
Average Load: 0lbs/flt
Fuel Used: 497,959lbs
Avg. Fuel Used: 0lbs/flt
Fuel Expense: $210,342
Avg. Fuel Expense: $0
Avg. Fuel Cost: $0/lbs
Total Gross Income: $1,139,085
Pilot Pay: $1,145
Total Expenses: $210,342
Total Revenue: $705,557
Average Revenue: $0

Capitol Logistics 592




EGNX
East Midlands Airport
Derby, GB
KJFK
John F Kennedy International Airport
New York, US